sensor_id;sensor_type;location;lat;lon;timestamp;temperature;humidity
37518;DHT22;23366;52.498;13.446;2023-09-07T00:00:18;20.20;99.90
37518;DHT22;23366;52.498;13.446;2023-09-07T00:02:44;20.20;99.90
37518;DHT22;23366;52.498;13.446;2023-09-07T00:05:09;20.20;99.90
37518;DHT22;23366;52.498;13.446;2023-09-07T00:07:35;20.20;99.90
37518;DHT22;23366;52.498;13.446;2023-09-07T00:10:02;20.20;99.90
37518;DHT22;23366;52.498;13.446;2023-09-07T00:12:28;20.20;99.90
37518;DHT22;23366;52.498;13.446;2023-09-07T00:14:54;20.20;99.90
37518;DHT22;23366;52.498;13.446;2023-09-07T00:17:20;20.20;99.90
37518;DHT22;23366;52.498;13.446;2023-09-07T00:19:46;20.10;99.90
37518;DHT22;23366;52.498;13.446;2023-09-07T00:22:14;20.10;99.90
37518;DHT22;23366;52.498;13.446;2023-09-07T00:24:40;20.10;99.90
37518;DHT22;23366;52.498;13.446;2023-09-07T00:27:05;20.10;99.90
37518;DHT22;23366;52.498;13.446;2023-09-07T00:29:34;20.00;99.90
37518;DHT22;23366;52.498;13.446;2023-09-07T00:31:59;20.00;99.90
37518;DHT22;23366;52.498;13.446;2023-09-07T00:34:25;20.00;99.90
37518;DHT22;23366;52.498;13.446;2023-09-07T00:36:50;20.00;99.90
37518;DHT22;23366;52.498;13.446;2023-09-07T00:39:16;20.00;99.90
37518;DHT22;23366;52.498;13.446;2023-09-07T00:41:41;20.00;99.90
37518;DHT22;23366;52.498;13.446;2023-09-07T00:44:07;19.90;99.90
37518;DHT22;23366;52.498;13.446;2023-09-07T00:46:32;20.00;99.90
37518;DHT22;23366;52.498;13.446;2023-09-07T00:48:58;19.90;99.90
37518;DHT22;23366;52.498;13.446;2023-09-07T00:51:23;19.90;99.90
37518;DHT22;23366;52.498;13.446;2023-09-07T00:53:49;19.90;99.90
37518;DHT22;23366;52.498;13.446;2023-09-07T00:56:16;19.90;99.90
37518;DHT22;23366;52.498;13.446;2023-09-07T00:58:42;19.90;99.90
37518;DHT22;23366;52.498;13.446;2023-09-07T01:01:08;19.90;99.90
37518;DHT22;23366;52.498;13.446;2023-09-07T01:03:34;19.80;99.90
37518;DHT22;23366;52.498;13.446;2023-09-07T01:06:07;19.90;99.90
37518;DHT22;23366;52.498;13.446;2023-09-07T01:08:42;19.80;99.90
37518;DHT22;23366;52.498;13.446;2023-09-07T01:11:16;19.80;99.90
37518;DHT22;23366;52.498;13.446;2023-09-07T01:13:42;19.80;99.90
37518;DHT22;23366;52.498;13.446;2023-09-07T01:16:09;19.80;99.90
37518;DHT22;23366;52.498;13.446;2023-09-07T01:18:35;19.70;99.90
37518;DHT22;23366;52.498;13.446;2023-09-07T01:21:04;19.70;99.90
37518;DHT22;23366;52.498;13.446;2023-09-07T01:23:31;19.70;99.90
37518;DHT22;23366;52.498;13.446;2023-09-07T01:25:57;19.70;99.90
37518;DHT22;23366;52.498;13.446;2023-09-07T01:28:23;19.70;99.90
37518;DHT22;23366;52.498;13.446;2023-09-07T01:30:51;19.70;99.90
37518;DHT22;23366;52.498;13.446;2023-09-07T01:33:17;19.60;99.90
37518;DHT22;23366;52.498;13.446;2023-09-07T01:35:42;19.60;99.90
37518;DHT22;23366;52.498;13.446;2023-09-07T01:38:08;19.60;99.90
37518;DHT22;23366;52.498;13.446;2023-09-07T01:40:34;19.60;99.90
37518;DHT22;23366;52.498;13.446;2023-09-07T01:42:59;19.50;99.90
37518;DHT22;23366;52.498;13.446;2023-09-07T01:45:25;19.50;99.90
37518;DHT22;23366;52.498;13.446;2023-09-07T01:47:51;19.50;99.90
37518;DHT22;23366;52.498;13.446;2023-09-07T01:50:17;19.50;99.90
37518;DHT22;23366;52.498;13.446;2023-09-07T01:52:45;19.50;99.90
37518;DHT22;23366;52.498;13.446;2023-09-07T01:55:10;19.50;99.90
37518;DHT22;23366;52.498;13.446;2023-09-07T01:57:36;19.40;99.90
37518;DHT22;23366;52.498;13.446;2023-09-07T02:00:01;19.40;99.90
37518;DHT22;23366;52.498;13.446;2023-09-07T02:02:29;19.40;99.90
37518;DHT22;23366;52.498;13.446;2023-09-07T02:04:55;19.40;99.90
37518;DHT22;23366;52.498;13.446;2023-09-07T02:07:20;19.30;99.90
37518;DHT22;23366;52.498;13.446;2023-09-07T02:09:46;19.40;99.90
37518;DHT22;23366;52.498;13.446;2023-09-07T02:12:11;19.30;99.90
37518;DHT22;23366;52.498;13.446;2023-09-07T02:14:37;19.30;99.90
37518;DHT22;23366;52.498;13.446;2023-09-07T02:17:03;19.30;99.90
37518;DHT22;23366;52.498;13.446;2023-09-07T02:19:28;19.20;99.90
37518;DHT22;23366;52.498;13.446;2023-09-07T02:21:54;19.30;99.90
37518;DHT22;23366;52.498;13.446;2023-09-07T02:24:19;19.20;99.90
37518;DHT22;23366;52.498;13.446;2023-09-07T02:26:45;19.20;99.90
37518;DHT22;23366;52.498;13.446;2023-09-07T02:29:13;19.20;99.90
37518;DHT22;23366;52.498;13.446;2023-09-07T02:31:40;19.20;99.90
37518;DHT22;23366;52.498;13.446;2023-09-07T02:34:06;19.20;99.90
37518;DHT22;23366;52.498;13.446;2023-09-07T02:36:32;19.10;99.90
37518;DHT22;23366;52.498;13.446;2023-09-07T02:38:57;19.10;99.90
37518;DHT22;23366;52.498;13.446;2023-09-07T02:41:23;19.10;99.90
37518;DHT22;23366;52.498;13.446;2023-09-07T02:43:48;19.10;99.90
37518;DHT22;23366;52.498;13.446;2023-09-07T02:46:13;19.10;99.90
37518;DHT22;23366;52.498;13.446;2023-09-07T02:48:39;19.00;99.90
37518;DHT22;23366;52.498;13.446;2023-09-07T02:51:04;19.00;99.90
37518;DHT22;23366;52.498;13.446;2023-09-07T02:53:30;19.00;99.90
37518;DHT22;23366;52.498;13.446;2023-09-07T02:55:55;19.00;99.90
37518;DHT22;23366;52.498;13.446;2023-09-07T02:58:22;19.00;99.90
37518;DHT22;23366;52.498;13.446;2023-09-07T03:00:48;18.90;99.90
37518;DHT22;23366;52.498;13.446;2023-09-07T03:03:13;18.90;99.90
37518;DHT22;23366;52.498;13.446;2023-09-07T03:05:40;18.90;99.90
37518;DHT22;23366;52.498;13.446;2023-09-07T03:08:05;18.80;99.90
37518;DHT22;23366;52.498;13.446;2023-09-07T03:10:32;18.80;99.90
37518;DHT22;23366;52.498;13.446;2023-09-07T03:12:57;18.80;99.90
37518;DHT22;23366;52.498;13.446;2023-09-07T03:15:23;18.80;99.90
37518;DHT22;23366;52.498;13.446;2023-09-07T03:17:48;18.70;99.90
37518;DHT22;23366;52.498;13.446;2023-09-07T03:20:14;18.70;99.90
37518;DHT22;23366;52.498;13.446;2023-09-07T03:22:46;18.70;99.90
37518;DHT22;23366;52.498;13.446;2023-09-07T03:25:13;18.70;99.90
37518;DHT22;23366;52.498;13.446;2023-09-07T03:27:39;18.70;99.90
37518;DHT22;23366;52.498;13.446;2023-09-07T03:30:05;18.70;99.90
37518;DHT22;23366;52.498;13.446;2023-09-07T03:32:31;18.60;99.90
37518;DHT22;23366;52.498;13.446;2023-09-07T03:35:03;18.60;99.90
37518;DHT22;23366;52.498;13.446;2023-09-07T03:37:29;18.60;99.90
37518;DHT22;23366;52.498;13.446;2023-09-07T03:39:56;18.60;99.90
37518;DHT22;23366;52.498;13.446;2023-09-07T03:42:22;18.50;99.90
37518;DHT22;23366;52.498;13.446;2023-09-07T03:44:47;18.50;99.90
37518;DHT22;23366;52.498;13.446;2023-09-07T03:47:14;18.50;99.90
37518;DHT22;23366;52.498;13.446;2023-09-07T03:49:39;18.40;99.90
37518;DHT22;23366;52.498;13.446;2023-09-07T03:52:05;18.40;99.90
37518;DHT22;23366;52.498;13.446;2023-09-07T03:54:31;18.40;99.90
37518;DHT22;23366;52.498;13.446;2023-09-07T03:56:57;18.40;99.90
37518;DHT22;23366;52.498;13.446;2023-09-07T03:59:23;18.40;99.90
37518;DHT22;23366;52.498;13.446;2023-09-07T04:01:48;18.30;99.90
37518;DHT22;23366;52.498;13.446;2023-09-07T04:04:14;18.20;99.90
37518;DHT22;23366;52.498;13.446;2023-09-07T04:06:39;18.20;99.90
37518;DHT22;23366;52.498;13.446;2023-09-07T04:09:05;18.20;99.90
37518;DHT22;23366;52.498;13.446;2023-09-07T04:11:30;18.20;99.90
37518;DHT22;23366;52.498;13.446;2023-09-07T04:13:56;18.20;99.90
37518;DHT22;23366;52.498;13.446;2023-09-07T04:16:21;18.10;99.90
37518;DHT22;23366;52.498;13.446;2023-09-07T04:18:46;18.10;99.90
37518;DHT22;23366;52.498;13.446;2023-09-07T04:21:12;18.00;99.90
37518;DHT22;23366;52.498;13.446;2023-09-07T04:23:37;18.00;99.90
37518;DHT22;23366;52.498;13.446;2023-09-07T04:26:09;18.00;99.90
37518;DHT22;23366;52.498;13.446;2023-09-07T04:28:34;18.00;99.90
37518;DHT22;23366;52.498;13.446;2023-09-07T04:31:01;18.00;99.90
37518;DHT22;23366;52.498;13.446;2023-09-07T04:33:30;17.90;99.90
37518;DHT22;23366;52.498;13.446;2023-09-07T04:35:55;17.90;99.90
37518;DHT22;23366;52.498;13.446;2023-09-07T04:38:21;18.00;99.90
37518;DHT22;23366;52.498;13.446;2023-09-07T04:40:46;17.90;99.90
37518;DHT22;23366;52.498;13.446;2023-09-07T04:43:11;18.00;99.90
37518;DHT22;23366;52.498;13.446;2023-09-07T04:45:46;18.00;99.90
37518;DHT22;23366;52.498;13.446;2023-09-07T04:48:11;18.00;99.90
37518;DHT22;23366;52.498;13.446;2023-09-07T04:50:37;18.00;99.90
37518;DHT22;23366;52.498;13.446;2023-09-07T04:53:03;18.00;99.90
37518;DHT22;23366;52.498;13.446;2023-09-07T04:55:28;18.00;99.90
37518;DHT22;23366;52.498;13.446;2023-09-07T04:57:54;18.00;99.90
37518;DHT22;23366;52.498;13.446;2023-09-07T05:00:19;18.00;99.90
37518;DHT22;23366;52.498;13.446;2023-09-07T05:02:45;18.10;99.90
37518;DHT22;23366;52.498;13.446;2023-09-07T05:05:11;18.20;99.90
37518;DHT22;23366;52.498;13.446;2023-09-07T05:07:36;18.20;99.90
37518;DHT22;23366;52.498;13.446;2023-09-07T05:10:02;18.30;99.90
37518;DHT22;23366;52.498;13.446;2023-09-07T05:12:28;18.50;99.90
37518;DHT22;23366;52.498;13.446;2023-09-07T05:14:53;18.60;99.90
37518;DHT22;23366;52.498;13.446;2023-09-07T05:17:19;18.90;99.90
37518;DHT22;23366;52.498;13.446;2023-09-07T05:19:44;19.30;99.90
37518;DHT22;23366;52.498;13.446;2023-09-07T05:22:10;19.90;99.90
37518;DHT22;23366;52.498;13.446;2023-09-07T05:24:38;20.60;99.90
37518;DHT22;23366;52.498;13.446;2023-09-07T05:27:04;21.10;99.90
37518;DHT22;23366;52.498;13.446;2023-09-07T05:29:29;21.80;99.90
37518;DHT22;23366;52.498;13.446;2023-09-07T05:31:55;22.40;99.90
37518;DHT22;23366;52.498;13.446;2023-09-07T05:34:20;22.80;99.90
37518;DHT22;23366;52.498;13.446;2023-09-07T05:36:47;23.30;99.90
37518;DHT22;23366;52.498;13.446;2023-09-07T05:39:13;23.80;99.40
37518;DHT22;23366;52.498;13.446;2023-09-07T05:41:38;24.20;98.10
37518;DHT22;23366;52.498;13.446;2023-09-07T05:44:04;24.40;97.40
37518;DHT22;23366;52.498;13.446;2023-09-07T05:46:29;24.90;96.50
37518;DHT22;23366;52.498;13.446;2023-09-07T05:48:55;25.10;95.60
37518;DHT22;23366;52.498;13.446;2023-09-07T05:51:20;25.60;95.10
37518;DHT22;23366;52.498;13.446;2023-09-07T05:53:46;26.00;93.90
37518;DHT22;23366;52.498;13.446;2023-09-07T05:56:11;26.50;93.30
37518;DHT22;23366;52.498;13.446;2023-09-07T05:58:37;26.90;92.20
37518;DHT22;23366;52.498;13.446;2023-09-07T06:01:02;27.10;91.00
37518;DHT22;23366;52.498;13.446;2023-09-07T06:03:28;27.40;90.40
37518;DHT22;23366;52.498;13.446;2023-09-07T06:05:53;27.60;89.30
37518;DHT22;23366;52.498;13.446;2023-09-07T06:08:19;28.20;88.30
37518;DHT22;23366;52.498;13.446;2023-09-07T06:10:44;28.70;86.50
37518;DHT22;23366;52.498;13.446;2023-09-07T06:13:09;29.00;83.40
37518;DHT22;23366;52.498;13.446;2023-09-07T06:15:35;29.20;83.50
37518;DHT22;23366;52.498;13.446;2023-09-07T06:18:00;29.60;81.90
37518;DHT22;23366;52.498;13.446;2023-09-07T06:20:26;30.00;79.70
37518;DHT22;23366;52.498;13.446;2023-09-07T06:22:51;30.60;78.70
37518;DHT22;23366;52.498;13.446;2023-09-07T06:25:17;31.00;77.10
37518;DHT22;23366;52.498;13.446;2023-09-07T06:27:42;31.40;75.50
37518;DHT22;23366;52.498;13.446;2023-09-07T06:30:09;31.50;73.50
37518;DHT22;23366;52.498;13.446;2023-09-07T06:32:35;31.70;72.80
37518;DHT22;23366;52.498;13.446;2023-09-07T06:35:00;32.10;73.40
37518;DHT22;23366;52.498;13.446;2023-09-07T06:37:25;32.40;72.10
37518;DHT22;23366;52.498;13.446;2023-09-07T06:39:51;32.70;70.10
37518;DHT22;23366;52.498;13.446;2023-09-07T06:42:17;33.00;70.10
37518;DHT22;23366;52.498;13.446;2023-09-07T06:44:42;33.30;67.70
37518;DHT22;23366;52.498;13.446;2023-09-07T06:47:08;33.80;67.70
37518;DHT22;23366;52.498;13.446;2023-09-07T06:49:33;34.20;66.20
37518;DHT22;23366;52.498;13.446;2023-09-07T06:51:59;34.20;64.80
37518;DHT22;23366;52.498;13.446;2023-09-07T06:54:27;34.60;65.00
37518;DHT22;23366;52.498;13.446;2023-09-07T06:56:52;35.10;64.10
37518;DHT22;23366;52.498;13.446;2023-09-07T06:59:18;35.30;63.40
37518;DHT22;23366;52.498;13.446;2023-09-07T07:01:43;35.80;61.90
37518;DHT22;23366;52.498;13.446;2023-09-07T07:04:09;36.20;61.70
37518;DHT22;23366;52.498;13.446;2023-09-07T07:06:35;36.60;60.50
37518;DHT22;23366;52.498;13.446;2023-09-07T07:09:00;36.70;59.40
37518;DHT22;23366;52.498;13.446;2023-09-07T07:11:26;37.10;59.00
37518;DHT22;23366;52.498;13.446;2023-09-07T07:13:51;36.70;58.70
37518;DHT22;23366;52.498;13.446;2023-09-07T07:16:17;36.50;58.00
37518;DHT22;23366;52.498;13.446;2023-09-07T07:18:42;36.40;57.70
37518;DHT22;23366;52.498;13.446;2023-09-07T07:21:07;36.60;57.70
37518;DHT22;23366;52.498;13.446;2023-09-07T07:23:34;36.80;57.40
37518;DHT22;23366;52.498;13.446;2023-09-07T07:26:00;37.00;56.90
37518;DHT22;23366;52.498;13.446;2023-09-07T07:28:25;37.00;57.30
37518;DHT22;23366;52.498;13.446;2023-09-07T07:30:51;37.40;57.00
37518;DHT22;23366;52.498;13.446;2023-09-07T07:33:19;37.70;56.10
37518;DHT22;23366;52.498;13.446;2023-09-07T07:35:44;37.70;57.00
37518;DHT22;23366;52.498;13.446;2023-09-07T07:38:11;38.10;56.10
37518;DHT22;23366;52.498;13.446;2023-09-07T07:40:39;38.40;55.00
37518;DHT22;23366;52.498;13.446;2023-09-07T07:43:04;38.80;55.00
37518;DHT22;23366;52.498;13.446;2023-09-07T07:45:29;38.80;54.20
37518;DHT22;23366;52.498;13.446;2023-09-07T07:47:55;39.30;54.10
37518;DHT22;23366;52.498;13.446;2023-09-07T07:50:20;39.90;53.70
37518;DHT22;23366;52.498;13.446;2023-09-07T07:52:46;40.30;53.60
37518;DHT22;23366;52.498;13.446;2023-09-07T07:55:12;40.50;52.30
37518;DHT22;23366;52.498;13.446;2023-09-07T07:57:37;40.80;52.70
37518;DHT22;23366;52.498;13.446;2023-09-07T08:00:04;41.00;52.20
37518;DHT22;23366;52.498;13.446;2023-09-07T08:02:30;41.10;51.50
37518;DHT22;23366;52.498;13.446;2023-09-07T08:04:56;41.30;52.00
37518;DHT22;23366;52.498;13.446;2023-09-07T08:07:21;41.60;51.50
37518;DHT22;23366;52.498;13.446;2023-09-07T08:09:47;41.60;50.70
37518;DHT22;23366;52.498;13.446;2023-09-07T08:12:12;41.70;50.70
37518;DHT22;23366;52.498;13.446;2023-09-07T08:14:38;41.70;50.30
37518;DHT22;23366;52.498;13.446;2023-09-07T08:17:03;41.80;50.00
37518;DHT22;23366;52.498;13.446;2023-09-07T08:19:29;41.80;49.90
37518;DHT22;23366;52.498;13.446;2023-09-07T08:21:54;41.70;49.90
37518;DHT22;23366;52.498;13.446;2023-09-07T08:24:20;41.40;49.40
37518;DHT22;23366;52.498;13.446;2023-09-07T08:26:46;41.60;50.00
37518;DHT22;23366;52.498;13.446;2023-09-07T08:29:15;41.90;49.40
37518;DHT22;23366;52.498;13.446;2023-09-07T08:31:40;42.00;48.40
37518;DHT22;23366;52.498;13.446;2023-09-07T08:34:07;41.40;48.30
37518;DHT22;23366;52.498;13.446;2023-09-07T08:36:36;41.00;48.60
37518;DHT22;23366;52.498;13.446;2023-09-07T08:39:03;40.60;48.70
37518;DHT22;23366;52.498;13.446;2023-09-07T08:41:32;40.80;49.30
37518;DHT22;23366;52.498;13.446;2023-09-07T08:43:58;40.80;48.80
37518;DHT22;23366;52.498;13.446;2023-09-07T08:46:25;40.70;49.20
37518;DHT22;23366;52.498;13.446;2023-09-07T08:48:51;40.90;49.00
37518;DHT22;23366;52.498;13.446;2023-09-07T08:51:18;40.60;48.90
37518;DHT22;23366;52.498;13.446;2023-09-07T08:53:44;40.50;49.10
37518;DHT22;23366;52.498;13.446;2023-09-07T08:56:12;40.60;49.00
37518;DHT22;23366;52.498;13.446;2023-09-07T08:58:38;40.30;49.00
37518;DHT22;23366;52.498;13.446;2023-09-07T09:01:03;39.90;49.40
37518;DHT22;23366;52.498;13.446;2023-09-07T09:03:29;39.90;49.50
37518;DHT22;23366;52.498;13.446;2023-09-07T09:05:56;39.00;49.70
37518;DHT22;23366;52.498;13.446;2023-09-07T09:08:21;37.70;50.40
37518;DHT22;23366;52.498;13.446;2023-09-07T09:10:59;37.00;50.70
37518;DHT22;23366;52.498;13.446;2023-09-07T09:13:31;36.20;52.10
37518;DHT22;23366;52.498;13.446;2023-09-07T09:15:59;35.40;53.60
37518;DHT22;23366;52.498;13.446;2023-09-07T09:18:29;34.10;53.80
37518;DHT22;23366;52.498;13.446;2023-09-07T09:20:55;33.10;55.30
37518;DHT22;23366;52.498;13.446;2023-09-07T09:23:21;32.30;56.50
37518;DHT22;23366;52.498;13.446;2023-09-07T09:25:49;31.30;55.90
37518;DHT22;23366;52.498;13.446;2023-09-07T09:28:15;30.50;58.80
37518;DHT22;23366;52.498;13.446;2023-09-07T09:30:41;30.20;59.20
37518;DHT22;23366;52.498;13.446;2023-09-07T09:33:10;29.70;60.10
37518;DHT22;23366;52.498;13.446;2023-09-07T09:35:37;29.50;60.00
37518;DHT22;23366;52.498;13.446;2023-09-07T09:38:06;29.00;61.60
37518;DHT22;23366;52.498;13.446;2023-09-07T09:40:33;28.60;60.90
37518;DHT22;23366;52.498;13.446;2023-09-07T09:43:01;28.40;62.60
37518;DHT22;23366;52.498;13.446;2023-09-07T09:45:27;28.20;62.90
37518;DHT22;23366;52.498;13.446;2023-09-07T09:47:54;28.10;63.30
37518;DHT22;23366;52.498;13.446;2023-09-07T09:50:22;28.00;64.10
37518;DHT22;23366;52.498;13.446;2023-09-07T09:52:48;27.90;63.40
37518;DHT22;23366;52.498;13.446;2023-09-07T09:55:13;27.80;63.70
37518;DHT22;23366;52.498;13.446;2023-09-07T09:57:40;27.70;63.30
37518;DHT22;23366;52.498;13.446;2023-09-07T10:00:06;27.50;63.70
37518;DHT22;23366;52.498;13.446;2023-09-07T10:03:08;27.40;64.20
37518;DHT22;23366;52.498;13.446;2023-09-07T10:05:36;27.30;65.00
37518;DHT22;23366;52.498;13.446;2023-09-07T10:08:09;27.30;65.20
37518;DHT22;23366;52.498;13.446;2023-09-07T10:10:35;27.30;64.40
37518;DHT22;23366;52.498;13.446;2023-09-07T10:13:02;27.30;64.50
37518;DHT22;23366;52.498;13.446;2023-09-07T10:15:28;27.20;64.90
37518;DHT22;23366;52.498;13.446;2023-09-07T10:18:32;27.20;64.50
37518;DHT22;23366;52.498;13.446;2023-09-07T10:20:58;27.20;64.80
37518;DHT22;23366;52.498;13.446;2023-09-07T10:23:38;27.10;63.90
37518;DHT22;23366;52.498;13.446;2023-09-07T10:26:05;26.90;65.00
37518;DHT22;23366;52.498;13.446;2023-09-07T10:28:34;26.90;66.00
37518;DHT22;23366;52.498;13.446;2023-09-07T10:31:05;26.90;66.00
37518;DHT22;23366;52.498;13.446;2023-09-07T10:33:35;26.80;64.40
37518;DHT22;23366;52.498;13.446;2023-09-07T10:36:04;26.70;66.00
37518;DHT22;23366;52.498;13.446;2023-09-07T10:38:31;26.70;65.80
37518;DHT22;23366;52.498;13.446;2023-09-07T10:40:59;26.80;65.90
37518;DHT22;23366;52.498;13.446;2023-09-07T10:43:27;26.90;65.50
37518;DHT22;23366;52.498;13.446;2023-09-07T10:45:54;26.90;65.60
37518;DHT22;23366;52.498;13.446;2023-09-07T10:48:19;26.90;64.80
37518;DHT22;23366;52.498;13.446;2023-09-07T10:50:46;26.90;65.00
37518;DHT22;23366;52.498;13.446;2023-09-07T10:53:12;27.00;64.90
37518;DHT22;23366;52.498;13.446;2023-09-07T10:55:39;27.00;65.40
37518;DHT22;23366;52.498;13.446;2023-09-07T10:58:06;27.10;65.20
37518;DHT22;23366;52.498;13.446;2023-09-07T11:00:31;27.10;65.20
37518;DHT22;23366;52.498;13.446;2023-09-07T11:02:57;27.10;65.20
37518;DHT22;23366;52.498;13.446;2023-09-07T11:05:22;27.00;63.20
37518;DHT22;23366;52.498;13.446;2023-09-07T11:07:48;26.90;63.10
37518;DHT22;23366;52.498;13.446;2023-09-07T11:10:13;26.80;63.00
37518;DHT22;23366;52.498;13.446;2023-09-07T11:12:40;26.80;62.30
37518;DHT22;23366;52.498;13.446;2023-09-07T11:15:09;26.80;62.70
37518;DHT22;23366;52.498;13.446;2023-09-07T11:17:37;26.80;63.20
37518;DHT22;23366;52.498;13.446;2023-09-07T11:20:05;26.90;62.40
37518;DHT22;23366;52.498;13.446;2023-09-07T11:22:31;26.80;62.70
37518;DHT22;23366;52.498;13.446;2023-09-07T11:24:59;26.70;62.80
37518;DHT22;23366;52.498;13.446;2023-09-07T11:27:29;26.80;61.90
37518;DHT22;23366;52.498;13.446;2023-09-07T11:29:56;26.80;62.90
37518;DHT22;23366;52.498;13.446;2023-09-07T11:32:22;26.80;63.20
37518;DHT22;23366;52.498;13.446;2023-09-07T11:34:49;26.80;61.70
37518;DHT22;23366;52.498;13.446;2023-09-07T11:37:15;26.90;61.70
37518;DHT22;23366;52.498;13.446;2023-09-07T11:39:40;26.90;62.00
37518;DHT22;23366;52.498;13.446;2023-09-07T11:42:05;27.00;62.60
37518;DHT22;23366;52.498;13.446;2023-09-07T11:44:31;27.00;62.40
37518;DHT22;23366;52.498;13.446;2023-09-07T11:46:56;27.10;62.60
37518;DHT22;23366;52.498;13.446;2023-09-07T11:49:22;27.10;62.90
37518;DHT22;23366;52.498;13.446;2023-09-07T11:51:47;27.10;63.40
37518;DHT22;23366;52.498;13.446;2023-09-07T11:54:13;27.20;62.60
37518;DHT22;23366;52.498;13.446;2023-09-07T11:56:38;27.20;61.70
37518;DHT22;23366;52.498;13.446;2023-09-07T11:59:08;27.20;61.50
37518;DHT22;23366;52.498;13.446;2023-09-07T12:01:34;27.10;61.30
37518;DHT22;23366;52.498;13.446;2023-09-07T12:04:00;27.10;61.30
37518;DHT22;23366;52.498;13.446;2023-09-07T12:06:25;27.10;61.50
37518;DHT22;23366;52.498;13.446;2023-09-07T12:09:05;27.20;61.10
37518;DHT22;23366;52.498;13.446;2023-09-07T12:11:35;27.20;62.20
37518;DHT22;23366;52.498;13.446;2023-09-07T12:14:00;27.20;61.90
37518;DHT22;23366;52.498;13.446;2023-09-07T12:16:26;27.20;62.40
37518;DHT22;23366;52.498;13.446;2023-09-07T12:18:51;27.20;62.60
37518;DHT22;23366;52.498;13.446;2023-09-07T12:21:17;27.10;62.20
37518;DHT22;23366;52.498;13.446;2023-09-07T12:23:42;27.10;62.10
37518;DHT22;23366;52.498;13.446;2023-09-07T12:26:08;27.10;61.80
37518;DHT22;23366;52.498;13.446;2023-09-07T12:28:34;27.00;61.80
37518;DHT22;23366;52.498;13.446;2023-09-07T12:30:59;27.00;62.40
37518;DHT22;23366;52.498;13.446;2023-09-07T12:33:25;27.00;62.80
37518;DHT22;23366;52.498;13.446;2023-09-07T12:35:51;27.00;61.80
37518;DHT22;23366;52.498;13.446;2023-09-07T12:38:16;27.00;60.10
37518;DHT22;23366;52.498;13.446;2023-09-07T12:40:47;27.00;60.30
37518;DHT22;23366;52.498;13.446;2023-09-07T12:43:13;27.00;60.80
37518;DHT22;23366;52.498;13.446;2023-09-07T12:45:38;27.00;60.60
37518;DHT22;23366;52.498;13.446;2023-09-07T12:48:04;27.00;60.70
37518;DHT22;23366;52.498;13.446;2023-09-07T12:50:30;27.00;61.20
37518;DHT22;23366;52.498;13.446;2023-09-07T12:52:55;27.00;61.90
37518;DHT22;23366;52.498;13.446;2023-09-07T12:55:20;27.10;62.10
37518;DHT22;23366;52.498;13.446;2023-09-07T12:57:47;27.10;62.60
37518;DHT22;23366;52.498;13.446;2023-09-07T13:00:13;27.10;62.90
37518;DHT22;23366;52.498;13.446;2023-09-07T13:02:38;27.10;63.50
37518;DHT22;23366;52.498;13.446;2023-09-07T13:05:04;27.10;63.50
37518;DHT22;23366;52.498;13.446;2023-09-07T13:07:31;27.00;63.70
37518;DHT22;23366;52.498;13.446;2023-09-07T13:09:57;27.00;63.50
37518;DHT22;23366;52.498;13.446;2023-09-07T13:12:23;27.00;63.60
37518;DHT22;23366;52.498;13.446;2023-09-07T13:14:48;27.00;63.80
37518;DHT22;23366;52.498;13.446;2023-09-07T13:17:14;27.00;63.80
37518;DHT22;23366;52.498;13.446;2023-09-07T13:19:40;27.10;64.30
37518;DHT22;23366;52.498;13.446;2023-09-07T13:22:05;27.10;63.50
37518;DHT22;23366;52.498;13.446;2023-09-07T13:24:33;27.10;63.50
37518;DHT22;23366;52.498;13.446;2023-09-07T13:26:58;27.10;63.30
37518;DHT22;23366;52.498;13.446;2023-09-07T13:29:23;27.20;63.80
37518;DHT22;23366;52.498;13.446;2023-09-07T13:31:50;27.10;63.50
37518;DHT22;23366;52.498;13.446;2023-09-07T13:34:17;27.10;63.40
37518;DHT22;23366;52.498;13.446;2023-09-07T13:36:43;27.20;62.60
37518;DHT22;23366;52.498;13.446;2023-09-07T13:39:08;27.20;62.50
37518;DHT22;23366;52.498;13.446;2023-09-07T13:41:34;27.20;62.40
37518;DHT22;23366;52.498;13.446;2023-09-07T13:43:59;27.20;62.80
37518;DHT22;23366;52.498;13.446;2023-09-07T13:46:26;27.10;63.20
37518;DHT22;23366;52.498;13.446;2023-09-07T13:48:51;27.10;63.20
37518;DHT22;23366;52.498;13.446;2023-09-07T13:51:17;27.10;63.60
37518;DHT22;23366;52.498;13.446;2023-09-07T13:53:43;27.10;63.90
37518;DHT22;23366;52.498;13.446;2023-09-07T13:56:08;27.10;63.10
37518;DHT22;23366;52.498;13.446;2023-09-07T13:58:34;27.10;63.30
37518;DHT22;23366;52.498;13.446;2023-09-07T14:00:59;27.10;63.50
37518;DHT22;23366;52.498;13.446;2023-09-07T14:03:24;27.10;64.20
37518;DHT22;23366;52.498;13.446;2023-09-07T14:05:50;27.10;63.90
37518;DHT22;23366;52.498;13.446;2023-09-07T14:08:15;27.10;64.40
37518;DHT22;23366;52.498;13.446;2023-09-07T14:10:42;27.10;64.00
37518;DHT22;23366;52.498;13.446;2023-09-07T14:13:07;27.10;64.20
37518;DHT22;23366;52.498;13.446;2023-09-07T14:15:33;27.00;63.70
37518;DHT22;23366;52.498;13.446;2023-09-07T14:17:58;27.00;63.00
37518;DHT22;23366;52.498;13.446;2023-09-07T14:20:26;27.00;63.30
37518;DHT22;23366;52.498;13.446;2023-09-07T14:22:51;27.00;63.70
37518;DHT22;23366;52.498;13.446;2023-09-07T14:25:17;27.00;64.30
37518;DHT22;23366;52.498;13.446;2023-09-07T14:27:42;27.00;64.50
37518;DHT22;23366;52.498;13.446;2023-09-07T14:30:08;27.00;64.80
37518;DHT22;23366;52.498;13.446;2023-09-07T14:32:34;27.00;64.40
37518;DHT22;23366;52.498;13.446;2023-09-07T14:34:59;27.00;64.30
37518;DHT22;23366;52.498;13.446;2023-09-07T14:37:25;27.00;64.80
37518;DHT22;23366;52.498;13.446;2023-09-07T14:39:50;27.00;65.00
37518;DHT22;23366;52.498;13.446;2023-09-07T14:42:16;27.00;64.70
37518;DHT22;23366;52.498;13.446;2023-09-07T14:44:44;27.00;64.30
37518;DHT22;23366;52.498;13.446;2023-09-07T14:47:10;27.00;64.80
37518;DHT22;23366;52.498;13.446;2023-09-07T14:49:36;27.10;64.20
37518;DHT22;23366;52.498;13.446;2023-09-07T14:52:02;27.00;64.60
37518;DHT22;23366;52.498;13.446;2023-09-07T14:54:27;27.00;65.00
37518;DHT22;23366;52.498;13.446;2023-09-07T14:56:53;27.00;64.90
37518;DHT22;23366;52.498;13.446;2023-09-07T14:59:18;27.00;65.10
37518;DHT22;23366;52.498;13.446;2023-09-07T15:01:44;26.90;64.40
37518;DHT22;23366;52.498;13.446;2023-09-07T15:04:09;27.00;64.80
37518;DHT22;23366;52.498;13.446;2023-09-07T15:06:35;26.90;64.60
37518;DHT22;23366;52.498;13.446;2023-09-07T15:09:02;26.90;64.50